WZZ60QL EDLW-EPWA
Flight info
| Callsign | WZZ60QL |
|---|---|
| Flight time | 1h 33m |
| Altitude | 37000 |
| Route | DOMEG3Q DOMEG N853 HMM M170 DOMJO Z851 ROBEG L980 HLZ DCT ALUKA DCT TUPUR L29 TADAK DCT NASOK DCT SORIX |
| Aircraft | A21N/M-SDE1E2E3FGIJ1J4RWXY/LB1 |
Departure
| Time | 2026-04-30 20:28 |
|---|---|
| Airport | Dortmund Airport (EDLW) |
Arrival
| Time | 2026-04-30 22:02 |
|---|---|
| Airport | Warsaw Chopin Airport (EPWA) |
| Time | Latitude | Longitude | Altitude | Speed | Heading |
|---|---|---|---|---|---|
| 2026-04-30 19:35 | 51.51556 | 7.61236 | 432 ft | 0 kts | 332° |
| 2026-04-30 20:13 | 51.51558 | 7.61234 | 432 ft | 2 kts | 332° |
| 2026-04-30 20:13 | 51.51603 | 7.61189 | 429 ft | 9 kts | 302° |
| 2026-04-30 20:14 | 51.51592 | 7.61065 | 428 ft | 12 kts | 246° |
| 2026-04-30 20:14 | 51.51555 | 7.60953 | 431 ft | 10 kts | 242° |
| 2026-04-30 20:14 | 51.51526 | 7.60871 | 433 ft | 4 kts | 241° |
| 2026-04-30 20:14 | 51.51524 | 7.60862 | 433 ft | 0 kts | 241° |
| 2026-04-30 20:15 | 51.51519 | 7.60851 | 434 ft | 5 kts | 240° |
| 2026-04-30 20:16 | 51.51480 | 7.60739 | 437 ft | 14 kts | 242° |
| 2026-04-30 20:16 | 51.51438 | 7.60617 | 439 ft | 12 kts | 240° |
| 2026-04-30 20:16 | 51.51397 | 7.60500 | 440 ft | 11 kts | 240° |
| 2026-04-30 20:16 | 51.51384 | 7.60465 | 441 ft | 0 kts | 240° |
| 2026-04-30 20:21 | 51.51380 | 7.60454 | 441 ft | 5 kts | 240° |
| 2026-04-30 20:21 | 51.51358 | 7.60364 | 443 ft | 0 kts | 269° |
| 2026-04-30 20:24 | 51.51358 | 7.60363 | 443 ft | 0 kts | 269° |
| 2026-04-30 20:24 | 51.51388 | 7.60283 | 441 ft | 14 kts | 323° |
| 2026-04-30 20:24 | 51.51482 | 7.60234 | 434 ft | 14 kts | 42° |
| 2026-04-30 20:25 | 51.51499 | 7.60272 | 432 ft | 0 kts | 61° |
| 2026-04-30 20:27 | 51.51501 | 7.60278 | 432 ft | 4 kts | 61° |
| 2026-04-30 20:28 | 51.51990 | 7.61669 | 407 ft | 141 kts | 61° |
| 2026-04-30 20:28 | 51.53030 | 7.64525 | 1644 ft | 143 kts | 64° |
| 2026-04-30 20:29 | 51.54026 | 7.67213 | 2811 ft | 145 kts | 68° |
| 2026-04-30 20:30 | 51.55636 | 7.72104 | 3805 ft | 190 kts | 68° |
| 2026-04-30 20:30 | 51.57852 | 7.78412 | 4774 ft | 241 kts | 63° |
| 2026-04-30 20:31 | 51.62696 | 7.81184 | 6427 ft | 287 kts | 345° |
| 2026-04-30 20:32 | 51.65390 | 7.73057 | 8804 ft | 306 kts | 260° |
| 2026-04-30 20:32 | 51.65868 | 7.66402 | 10214 ft | 311 kts | 307° |
| 2026-04-30 20:33 | 51.67369 | 7.64020 | 10889 ft | 310 kts | 325° |
| 2026-04-30 20:33 | 51.71237 | 7.60641 | 11902 ft | 321 kts | 356° |
| 2026-04-30 20:33 | 51.73413 | 7.60736 | 12581 ft | 313 kts | 18° |
| 2026-04-30 20:34 | 51.77259 | 7.63717 | 13957 ft | 311 kts | 33° |
| 2026-04-30 20:34 | 51.81097 | 7.67014 | 15293 ft | 317 kts | 32° |
| 2026-04-30 20:35 | 51.83060 | 7.68651 | 15933 ft | 320 kts | 32° |
| 2026-04-30 20:35 | 51.84972 | 7.70443 | 16565 ft | 319 kts | 38° |
| 2026-04-30 20:35 | 51.88296 | 7.75119 | 17799 ft | 320 kts | 49° |
| 2026-04-30 20:36 | 51.89835 | 7.77680 | 18382 ft | 322 kts | 49° |
| 2026-04-30 20:36 | 51.91391 | 7.80294 | 18954 ft | 325 kts | 49° |
| 2026-04-30 20:36 | 51.94543 | 7.85585 | 19989 ft | 331 kts | 48° |
| 2026-04-30 20:37 | 51.96154 | 7.88288 | 20506 ft | 335 kts | 48° |
| 2026-04-30 20:37 | 51.97760 | 7.90979 | 20993 ft | 338 kts | 48° |
| 2026-04-30 20:37 | 51.99412 | 7.93750 | 21492 ft | 341 kts | 48° |
| 2026-04-30 20:37 | 52.01044 | 7.96498 | 21977 ft | 343 kts | 49° |
| 2026-04-30 20:38 | 52.02484 | 7.99579 | 22428 ft | 345 kts | 59° |
| 2026-04-30 20:38 | 52.03523 | 8.03077 | 22889 ft | 347 kts | 70° |
| 2026-04-30 20:38 | 52.04221 | 8.06834 | 23358 ft | 349 kts | 74° |
| 2026-04-30 20:39 | 52.05473 | 8.14504 | 24230 ft | 355 kts | 74° |
| 2026-04-30 20:39 | 52.06110 | 8.18428 | 24671 ft | 358 kts | 74° |
| 2026-04-30 20:39 | 52.06743 | 8.22307 | 25089 ft | 360 kts | 74° |
| 2026-04-30 20:40 | 52.08032 | 8.30189 | 25903 ft | 366 kts | 73° |
| 2026-04-30 20:40 | 52.08691 | 8.34234 | 26298 ft | 369 kts | 73° |
| 2026-04-30 20:40 | 52.09344 | 8.38255 | 26664 ft | 372 kts | 74° |
| 2026-04-30 20:41 | 52.10658 | 8.46391 | 27405 ft | 377 kts | 73° |
| 2026-04-30 20:41 | 52.11318 | 8.50498 | 27780 ft | 380 kts | 73° |
| 2026-04-30 20:41 | 52.11991 | 8.54696 | 28151 ft | 382 kts | 73° |
| 2026-04-30 20:41 | 52.12671 | 8.58940 | 28519 ft | 385 kts | 73° |
| 2026-04-30 20:42 | 52.13345 | 8.63166 | 28879 ft | 387 kts | 73° |
| 2026-04-30 20:42 | 52.14025 | 8.67443 | 29224 ft | 390 kts | 74° |
| 2026-04-30 20:42 | 52.15376 | 8.75976 | 29900 ft | 395 kts | 74° |
| 2026-04-30 20:43 | 52.16062 | 8.80323 | 30245 ft | 397 kts | 74° |
| 2026-04-30 20:43 | 52.16746 | 8.84672 | 30561 ft | 400 kts | 74° |
| 2026-04-30 20:43 | 52.17436 | 8.89071 | 30877 ft | 402 kts | 74° |
| 2026-04-30 20:44 | 52.18827 | 8.97938 | 31519 ft | 406 kts | 73° |
| 2026-04-30 20:44 | 52.19532 | 9.02403 | 31832 ft | 408 kts | 73° |
| 2026-04-30 20:44 | 52.20933 | 9.11326 | 32437 ft | 411 kts | 73° |
| 2026-04-30 20:45 | 52.22341 | 9.20424 | 33016 ft | 415 kts | 75° |
| 2026-04-30 20:45 | 52.22921 | 9.25053 | 33302 ft | 418 kts | 77° |
| 2026-04-30 20:45 | 52.23336 | 9.29697 | 33576 ft | 420 kts | 81° |
| 2026-04-30 20:46 | 52.23880 | 9.44090 | 34406 ft | 426 kts | 84° |
| 2026-04-30 20:46 | 52.24016 | 9.48889 | 34768 ft | 425 kts | 84° |
| 2026-04-30 20:47 | 52.24282 | 9.58415 | 35543 ft | 422 kts | 84° |
| 2026-04-30 20:47 | 52.24414 | 9.63207 | 35902 ft | 421 kts | 84° |
| 2026-04-30 20:48 | 52.24673 | 9.72741 | 36418 ft | 423 kts | 84° |
| 2026-04-30 20:48 | 52.24800 | 9.77531 | 36668 ft | 424 kts | 85° |
| 2026-04-30 20:48 | 52.24929 | 9.82306 | 36921 ft | 424 kts | 84° |
| 2026-04-30 20:48 | 52.25169 | 9.87120 | 37150 ft | 423 kts | 81° |
| 2026-04-30 20:49 | 52.25570 | 9.91895 | 37376 ft | 423 kts | 78° |
| 2026-04-30 20:49 | 52.26108 | 9.96529 | 37445 ft | 423 kts | 76° |
| 2026-04-30 20:50 | 52.27910 | 10.10766 | 37448 ft | 422 kts | 75° |
| 2026-04-30 20:50 | 52.29089 | 10.20140 | 37449 ft | 422 kts | 75° |
| 2026-04-30 20:51 | 52.30257 | 10.29505 | 37447 ft | 422 kts | 75° |
| 2026-04-30 20:51 | 52.31994 | 10.43571 | 37446 ft | 423 kts | 75° |
| 2026-04-30 20:52 | 52.33146 | 10.52992 | 37448 ft | 423 kts | 75° |
| 2026-04-30 20:53 | 52.34848 | 10.67052 | 37446 ft | 422 kts | 76° |
| 2026-04-30 20:53 | 52.35977 | 10.76446 | 37444 ft | 422 kts | 75° |
| 2026-04-30 20:54 | 52.38161 | 10.90292 | 37440 ft | 421 kts | 71° |
| 2026-04-30 20:55 | 52.40478 | 11.04059 | 37431 ft | 421 kts | 72° |
| 2026-04-30 20:55 | 52.42014 | 11.13268 | 37432 ft | 420 kts | 71° |
| 2026-04-30 20:56 | 52.44308 | 11.27132 | 37435 ft | 419 kts | 71° |
| 2026-04-30 20:57 | 52.46568 | 11.40906 | 37439 ft | 419 kts | 71° |
| 2026-04-30 20:57 | 52.48073 | 11.50137 | 37437 ft | 419 kts | 71° |
| 2026-04-30 20:58 | 52.50302 | 11.63900 | 37439 ft | 418 kts | 71° |
| 2026-04-30 20:58 | 52.51775 | 11.73070 | 37439 ft | 417 kts | 72° |
| 2026-04-30 20:59 | 52.53979 | 11.86866 | 37444 ft | 417 kts | 72° |
| 2026-04-30 21:00 | 52.56892 | 12.05289 | 37444 ft | 416 kts | 72° |
| 2026-04-30 21:01 | 52.59052 | 12.19086 | 37443 ft | 415 kts | 72° |
| 2026-04-30 21:02 | 52.61185 | 12.32825 | 37444 ft | 414 kts | 72° |
| 2026-04-30 21:02 | 52.62600 | 12.41993 | 37447 ft | 415 kts | 72° |
| 2026-04-30 21:03 | 52.64007 | 12.51169 | 37451 ft | 416 kts | 72° |
| 2026-04-30 21:03 | 52.65411 | 12.60384 | 37450 ft | 416 kts | 72° |
| 2026-04-30 21:04 | 52.66806 | 12.69588 | 37449 ft | 416 kts | 72° |
| 2026-04-30 21:04 | 52.68888 | 12.83431 | 37448 ft | 416 kts | 72° |
| 2026-04-30 21:05 | 52.70285 | 12.92776 | 37448 ft | 416 kts | 72° |
| 2026-04-30 21:05 | 52.71656 | 13.02008 | 37447 ft | 416 kts | 72° |
| 2026-04-30 21:06 | 52.73019 | 13.11247 | 37445 ft | 415 kts | 72° |
| 2026-04-30 21:06 | 52.74377 | 13.20500 | 37443 ft | 415 kts | 72° |
| 2026-04-30 21:07 | 52.75721 | 13.29709 | 37445 ft | 415 kts | 72° |
| 2026-04-30 21:07 | 52.77054 | 13.38917 | 37444 ft | 414 kts | 72° |
| 2026-04-30 21:08 | 52.78384 | 13.48133 | 37439 ft | 413 kts | 72° |
| 2026-04-30 21:08 | 52.79700 | 13.57318 | 37432 ft | 413 kts | 72° |
| 2026-04-30 21:09 | 52.81008 | 13.66491 | 37431 ft | 412 kts | 72° |
| 2026-04-30 21:09 | 52.82314 | 13.75711 | 37430 ft | 413 kts | 72° |
| 2026-04-30 21:10 | 52.83602 | 13.84885 | 37430 ft | 412 kts | 72° |
| 2026-04-30 21:10 | 52.84895 | 13.94125 | 37428 ft | 412 kts | 72° |
| 2026-04-30 21:11 | 52.86185 | 14.03414 | 37427 ft | 411 kts | 72° |
| 2026-04-30 21:11 | 52.87457 | 14.12627 | 37427 ft | 411 kts | 72° |
| 2026-04-30 21:12 | 52.88717 | 14.21830 | 37427 ft | 411 kts | 72° |
| 2026-04-30 21:12 | 52.89193 | 14.31362 | 37432 ft | 420 kts | 85° |
| 2026-04-30 21:13 | 52.89056 | 14.40961 | 37424 ft | 419 kts | 85° |
| 2026-04-30 21:13 | 52.88904 | 14.50646 | 37421 ft | 419 kts | 85° |
| 2026-04-30 21:14 | 52.88756 | 14.60285 | 37414 ft | 418 kts | 85° |
| 2026-04-30 21:14 | 52.88606 | 14.69893 | 37412 ft | 418 kts | 85° |
| 2026-04-30 21:15 | 52.88452 | 14.79457 | 37407 ft | 418 kts | 85° |
| 2026-04-30 21:15 | 52.88291 | 14.89042 | 37409 ft | 417 kts | 85° |
| 2026-04-30 21:16 | 52.88123 | 14.98555 | 37408 ft | 417 kts | 85° |
| 2026-04-30 21:16 | 52.87837 | 15.08165 | 37409 ft | 419 kts | 89° |
| 2026-04-30 21:17 | 52.87107 | 15.17702 | 37414 ft | 419 kts | 91° |
| 2026-04-30 21:17 | 52.86344 | 15.27232 | 37118 ft | 418 kts | 90° |
| 2026-04-30 21:18 | 52.85967 | 15.31995 | 37338 ft | 419 kts | 90° |
| 2026-04-30 21:18 | 52.85587 | 15.36793 | 37397 ft | 420 kts | 90° |
| 2026-04-30 21:18 | 52.84832 | 15.46323 | 37421 ft | 420 kts | 90° |
| 2026-04-30 21:19 | 52.84067 | 15.55899 | 37423 ft | 419 kts | 90° |
| 2026-04-30 21:19 | 52.83307 | 15.65366 | 37422 ft | 417 kts | 91° |
| 2026-04-30 21:20 | 52.82536 | 15.74857 | 37423 ft | 417 kts | 91° |
| 2026-04-30 21:20 | 52.81761 | 15.84305 | 37420 ft | 416 kts | 90° |
| 2026-04-30 21:21 | 52.80980 | 15.93765 | 37415 ft | 417 kts | 91° |
| 2026-04-30 21:22 | 52.79794 | 16.07901 | 37411 ft | 415 kts | 90° |
| 2026-04-30 21:23 | 52.78186 | 16.26745 | 37411 ft | 415 kts | 90° |
| 2026-04-30 21:23 | 52.76958 | 16.40901 | 37408 ft | 413 kts | 90° |
| 2026-04-30 21:24 | 52.76140 | 16.50241 | 37403 ft | 412 kts | 90° |
| 2026-04-30 21:24 | 52.75312 | 16.59578 | 37405 ft | 412 kts | 90° |
| 2026-04-30 21:25 | 52.74062 | 16.73542 | 37405 ft | 411 kts | 91° |
| 2026-04-30 21:26 | 52.72792 | 16.87526 | 37389 ft | 411 kts | 91° |
| 2026-04-30 21:27 | 52.71507 | 17.01475 | 37391 ft | 409 kts | 91° |
| 2026-04-30 21:27 | 52.70643 | 17.10776 | 37383 ft | 410 kts | 91° |
| 2026-04-30 21:28 | 52.69342 | 17.24591 | 37407 ft | 410 kts | 90° |
| 2026-04-30 21:29 | 52.68015 | 17.38529 | 37372 ft | 409 kts | 90° |
| 2026-04-30 21:30 | 52.65776 | 17.61622 | 37373 ft | 409 kts | 90° |
| 2026-04-30 21:31 | 52.63495 | 17.84670 | 37370 ft | 409 kts | 91° |
| 2026-04-30 21:32 | 52.62103 | 17.98506 | 37361 ft | 409 kts | 91° |
| 2026-04-30 21:32 | 52.61169 | 18.07684 | 37362 ft | 409 kts | 91° |
| 2026-04-30 21:33 | 52.59751 | 18.21495 | 37367 ft | 409 kts | 91° |
| 2026-04-30 21:34 | 52.58801 | 18.30666 | 37383 ft | 408 kts | 91° |
| 2026-04-30 21:34 | 52.57363 | 18.44408 | 37383 ft | 408 kts | 91° |
| 2026-04-30 21:35 | 52.56393 | 18.53556 | 37380 ft | 408 kts | 91° |
| 2026-04-30 21:35 | 52.55418 | 18.62700 | 37381 ft | 409 kts | 91° |
| 2026-04-30 21:36 | 52.54435 | 18.71857 | 36807 ft | 408 kts | 91° |
| 2026-04-30 21:37 | 52.52954 | 18.85483 | 35077 ft | 408 kts | 91° |
| 2026-04-30 21:37 | 52.52457 | 18.90039 | 34426 ft | 408 kts | 91° |
| 2026-04-30 21:37 | 52.51959 | 18.94596 | 33797 ft | 407 kts | 91° |
| 2026-04-30 21:37 | 52.51459 | 18.99119 | 33316 ft | 403 kts | 91° |
| 2026-04-30 21:38 | 52.50960 | 19.03634 | 32818 ft | 399 kts | 91° |
| 2026-04-30 21:38 | 52.50471 | 19.08033 | 32348 ft | 394 kts | 90° |
| 2026-04-30 21:38 | 52.49978 | 19.12442 | 31899 ft | 389 kts | 90° |
| 2026-04-30 21:38 | 52.49496 | 19.16754 | 31474 ft | 384 kts | 90° |
| 2026-04-30 21:39 | 52.49018 | 19.21006 | 31050 ft | 379 kts | 90° |
| 2026-04-30 21:39 | 52.48546 | 19.25216 | 30612 ft | 374 kts | 90° |
| 2026-04-30 21:39 | 52.48078 | 19.29362 | 30170 ft | 370 kts | 90° |
| 2026-04-30 21:39 | 52.47613 | 19.33483 | 29729 ft | 366 kts | 90° |
| 2026-04-30 21:40 | 52.47152 | 19.37541 | 29265 ft | 363 kts | 90° |
| 2026-04-30 21:40 | 52.46699 | 19.41529 | 28805 ft | 360 kts | 90° |
| 2026-04-30 21:40 | 52.46240 | 19.45558 | 28328 ft | 357 kts | 90° |
| 2026-04-30 21:40 | 52.45787 | 19.49495 | 27875 ft | 353 kts | 90° |
| 2026-04-30 21:41 | 52.45340 | 19.53403 | 27423 ft | 350 kts | 90° |
| 2026-04-30 21:41 | 52.44886 | 19.57333 | 26932 ft | 348 kts | 90° |
| 2026-04-30 21:41 | 52.44442 | 19.61179 | 26422 ft | 347 kts | 90° |
| 2026-04-30 21:41 | 52.43992 | 19.65072 | 25974 ft | 344 kts | 91° |
| 2026-04-30 21:42 | 52.43545 | 19.68917 | 25479 ft | 343 kts | 91° |
| 2026-04-30 21:42 | 52.43100 | 19.72738 | 25006 ft | 342 kts | 91° |
| 2026-04-30 21:42 | 52.42657 | 19.76516 | 24545 ft | 340 kts | 91° |
| 2026-04-30 21:42 | 52.42209 | 19.80345 | 24066 ft | 338 kts | 91° |
| 2026-04-30 21:43 | 52.41769 | 19.84077 | 23610 ft | 337 kts | 91° |
| 2026-04-30 21:43 | 52.41324 | 19.87838 | 23149 ft | 335 kts | 91° |
| 2026-04-30 21:43 | 52.40880 | 19.91601 | 22666 ft | 334 kts | 91° |
| 2026-04-30 21:43 | 52.40446 | 19.95266 | 22216 ft | 332 kts | 91° |
| 2026-04-30 21:44 | 52.40003 | 19.98989 | 21732 ft | 331 kts | 91° |
| 2026-04-30 21:44 | 52.39560 | 20.02692 | 21256 ft | 330 kts | 92° |
| 2026-04-30 21:44 | 52.39120 | 20.06368 | 20800 ft | 329 kts | 92° |
| 2026-04-30 21:44 | 52.38686 | 20.09989 | 20353 ft | 327 kts | 92° |
| 2026-04-30 21:45 | 52.38251 | 20.13599 | 19895 ft | 326 kts | 92° |
| 2026-04-30 21:45 | 52.37812 | 20.17240 | 19421 ft | 325 kts | 92° |
| 2026-04-30 21:45 | 52.37371 | 20.20890 | 18951 ft | 324 kts | 93° |
| 2026-04-30 21:45 | 52.36935 | 20.24473 | 18507 ft | 322 kts | 93° |
| 2026-04-30 21:46 | 52.36502 | 20.28027 | 18086 ft | 321 kts | 93° |
| 2026-04-30 21:46 | 52.36063 | 20.31615 | 17624 ft | 320 kts | 93° |
| 2026-04-30 21:46 | 52.35629 | 20.35163 | 17147 ft | 319 kts | 93° |
| 2026-04-30 21:46 | 52.35195 | 20.38708 | 16690 ft | 317 kts | 93° |
| 2026-04-30 21:47 | 52.34764 | 20.42198 | 16284 ft | 315 kts | 93° |
| 2026-04-30 21:47 | 52.34334 | 20.45673 | 15831 ft | 314 kts | 94° |
| 2026-04-30 21:47 | 52.33902 | 20.49158 | 15365 ft | 313 kts | 94° |
| 2026-04-30 21:47 | 52.33471 | 20.52629 | 14961 ft | 310 kts | 94° |
| 2026-04-30 21:48 | 52.33046 | 20.56049 | 14549 ft | 309 kts | 94° |
| 2026-04-30 21:48 | 52.32617 | 20.59496 | 14135 ft | 307 kts | 94° |
| 2026-04-30 21:48 | 52.32197 | 20.62858 | 13727 ft | 306 kts | 94° |
| 2026-04-30 21:48 | 52.31769 | 20.66277 | 13300 ft | 305 kts | 95° |
| 2026-04-30 21:49 | 52.31346 | 20.69651 | 12885 ft | 304 kts | 95° |
| 2026-04-30 21:49 | 52.30924 | 20.72992 | 12474 ft | 303 kts | 95° |
| 2026-04-30 21:49 | 52.30496 | 20.76393 | 12059 ft | 302 kts | 95° |
| 2026-04-30 21:49 | 52.30077 | 20.79707 | 11655 ft | 301 kts | 95° |
| 2026-04-30 21:50 | 52.29652 | 20.83041 | 11252 ft | 300 kts | 95° |
| 2026-04-30 21:50 | 52.29227 | 20.86387 | 10847 ft | 299 kts | 95° |
| 2026-04-30 21:50 | 52.28804 | 20.89699 | 10505 ft | 295 kts | 95° |
| 2026-04-30 21:50 | 52.28389 | 20.92916 | 10386 ft | 282 kts | 96° |
| 2026-04-30 21:51 | 52.27989 | 20.96017 | 10099 ft | 278 kts | 95° |
| 2026-04-30 21:51 | 52.27595 | 20.99108 | 9720 ft | 277 kts | 95° |
| 2026-04-30 21:51 | 52.26992 | 21.02142 | 9311 ft | 286 kts | 116° |
| 2026-04-30 21:51 | 52.25580 | 21.04411 | 8955 ft | 297 kts | 144° |
| 2026-04-30 21:52 | 52.23736 | 21.05987 | 8567 ft | 298 kts | 149° |
| 2026-04-30 21:52 | 52.21894 | 21.07492 | 8147 ft | 298 kts | 149° |
| 2026-04-30 21:52 | 52.20048 | 21.09028 | 7765 ft | 296 kts | 149° |
| 2026-04-30 21:52 | 52.18230 | 21.10564 | 7634 ft | 285 kts | 148° |
| 2026-04-30 21:53 | 52.16512 | 21.12031 | 7525 ft | 273 kts | 148° |
| 2026-04-30 21:53 | 52.14875 | 21.13436 | 7396 ft | 263 kts | 148° |
| 2026-04-30 21:53 | 52.13267 | 21.14841 | 7105 ft | 262 kts | 147° |
| 2026-04-30 21:53 | 52.11650 | 21.16266 | 6809 ft | 261 kts | 148° |
| 2026-04-30 21:54 | 52.10066 | 21.17660 | 6482 ft | 259 kts | 148° |
| 2026-04-30 21:54 | 52.08487 | 21.19044 | 6189 ft | 257 kts | 148° |
| 2026-04-30 21:54 | 52.06937 | 21.20398 | 5893 ft | 254 kts | 148° |
| 2026-04-30 21:54 | 52.05387 | 21.21752 | 5618 ft | 251 kts | 148° |
| 2026-04-30 21:55 | 52.03867 | 21.23076 | 5346 ft | 249 kts | 149° |
| 2026-04-30 21:55 | 52.02270 | 21.24215 | 5023 ft | 251 kts | 168° |
| 2026-04-30 21:55 | 52.00576 | 21.23893 | 4700 ft | 248 kts | 209° |
| 2026-04-30 21:55 | 51.99387 | 21.22017 | 4425 ft | 235 kts | 246° |
| 2026-04-30 21:56 | 51.98726 | 21.19677 | 4191 ft | 229 kts | 250° |
| 2026-04-30 21:56 | 51.98073 | 21.17353 | 4001 ft | 222 kts | 252° |
| 2026-04-30 21:56 | 51.97873 | 21.15023 | 3965 ft | 205 kts | 287° |
| 2026-04-30 21:56 | 51.98512 | 21.13018 | 3984 ft | 198 kts | 316° |
| 2026-04-30 21:57 | 51.99537 | 21.11609 | 3928 ft | 192 kts | 328° |
| 2026-04-30 21:57 | 52.00655 | 21.10548 | 3728 ft | 182 kts | 334° |
| 2026-04-30 21:57 | 52.01759 | 21.09626 | 3461 ft | 176 kts | 334° |
| 2026-04-30 21:57 | 52.02838 | 21.08722 | 3200 ft | 172 kts | 334° |
| 2026-04-30 21:58 | 52.03887 | 21.07823 | 2950 ft | 172 kts | 333° |
| 2026-04-30 21:58 | 52.04937 | 21.06909 | 2713 ft | 169 kts | 332° |
| 2026-04-30 21:58 | 52.05949 | 21.06020 | 2472 ft | 163 kts | 332° |
| 2026-04-30 21:58 | 52.06921 | 21.05166 | 2250 ft | 155 kts | 332° |
| 2026-04-30 21:59 | 52.07859 | 21.04342 | 2049 ft | 153 kts | 332° |
| 2026-04-30 21:59 | 52.08797 | 21.03520 | 1859 ft | 154 kts | 332° |
| 2026-04-30 21:59 | 52.09705 | 21.02725 | 1689 ft | 143 kts | 331° |
| 2026-04-30 22:00 | 52.11384 | 21.01255 | 1289 ft | 135 kts | 331° |
| 2026-04-30 22:00 | 52.13029 | 20.99815 | 923 ft | 134 kts | 330° |
| 2026-04-30 22:00 | 52.13862 | 20.99088 | 733 ft | 134 kts | 331° |
| 2026-04-30 22:01 | 52.14677 | 20.98375 | 562 ft | 134 kts | 330° |
| 2026-04-30 22:01 | 52.15494 | 20.97657 | 387 ft | 135 kts | 330° |
| 2026-04-30 22:01 | 52.16260 | 20.96984 | 337 ft | 107 kts | 332° |
| 2026-04-30 22:01 | 52.16769 | 20.96541 | 330 ft | 58 kts | 333° |
| 2026-04-30 22:02 | 52.17003 | 20.96337 | 333 ft | 28 kts | 331° |
| 2026-04-30 22:02 | 52.17153 | 20.96250 | 338 ft | 19 kts | 356° |
| 2026-04-30 22:02 | 52.17289 | 20.96249 | 337 ft | 19 kts | 1° |
| 2026-04-30 22:02 | 52.17399 | 20.96302 | 336 ft | 17 kts | 60° |
| 2026-04-30 22:03 | 52.17458 | 20.96483 | 333 ft | 18 kts | 62° |
| 2026-04-30 22:03 | 52.17531 | 20.96640 | 337 ft | 15 kts | 58° |
| 2026-04-30 22:03 | 52.17589 | 20.96778 | 339 ft | 11 kts | 25° |
| 2026-04-30 22:03 | 52.17645 | 20.96751 | 338 ft | 9 kts | 329° |
| 2026-04-30 22:04 | 52.17699 | 20.96683 | 338 ft | 3 kts | 288° |
| 2026-04-30 22:04 | 52.17682 | 20.96633 | 337 ft | 0 kts | 232° |